Keystone, IA (52249)

4:09 PM CDT on October 21, 2014 (GMT -0500)
The Llama Pasture | Change Station
CLOSE
Current Station
Personal Weather Station
Location: Van Horne, IA
Elevation: 944 ft
Nearby Weather Stations

Elev 944 ft 42.02 °N, 92.11 °W | Updated 21 seconds ago

Clear
Clear
62.7 °F
Feels Like 62.7 °F
N
1.0
Wind Variable Wind from ESE
Gusts 1.0 mph

Today
High -- | Low -- °F
--% Chance of Precip.
Yesterday
High -- | Low -- °F
Precip. -- in
7:28 AM 6:17 PM
Waning Crescent, 4% visible
Pressure 30.16 in
Visibility 10.0 miles
Clouds Clear
Dew Point 45 °F
Humidity 52%
Rainfall 0.00 in
Snow Depth Not available.
UV 2 out of 12
Pollen 1.40 out of 12
Air Quality Not available.
Flu Activity Sporadic
METAR KCID 212052Z 07009KT 10SM CLR 15/05 A3015 RMK AO2 SLP213 T01500050 56008

More Conditions Fewer Conditions

Pressure 30.16 in
Visibility 10.0 miles
Clouds Clear
Dew Point 45 °F
Humidity 52%
Rainfall 0.00 in
Snow Depth Not available.
UV 2 out of 12
Pollen 1.40 out of 12
Air Quality Not available.
Flu Activity Sporadic
METAR KCID 212052Z 07009KT 10SM CLR 15/05 A3015 RMK AO2 SLP213 T01500050 56008

More Conditions Fewer Conditions

10-Day Weather Forecast

Almanac

Astronomy

Oct. 21, 2014 Rise Set
Actual Time 7:28 AM CDT 6:17 PM CDT
Civil Twilight 6:59 AM CDT 6:46 PM CDT
Nautical Twilight 6:27 AM CDT 7:18 PM CDT
Astronomical Twilight 5:54 AM CDT 7:51 PM CDT
Moon 5:10 AM CDT 5:13 PM CDT
Length of Visible Light 11h 46m
Length of Day
10h 49m
Tomorrow will be 2m 40s shorter.
Waning Crescent, 4% of the Moon is Illuminated
Today
Waning Crescent
Oct 23
New
Oct 30
First Quarter
Nov 6
Full
Nov 14
Last Quarter

Today's Extremes

State Highs State Lows

Community

WunderPhotos

Upload Photos

1,763,779 photos uploaded!

WunderBlogs® & News

Nearby

Snow Depth

Station Depth Elevation
No new snow has been reported.

Earthquake Activity

City Distance Mag. Time & Date
No recent earthquake activity has been reported nearby.
Minimum magnitude displayed is 2.5.

Coastal Water Temperatures

Place Temperature
No Stations Reporting

Nearby Weather Stations